sensor_id;sensor_type;location;lat;lon;timestamp;temperature;humidity
59148;DHT22;44930;52.878;6.168;2023-05-02T00:02:13;11.00;99.90
59148;DHT22;44930;52.878;6.168;2023-05-02T00:04:39;10.80;99.90
59148;DHT22;44930;52.878;6.168;2023-05-02T00:07:05;10.70;99.90
59148;DHT22;44930;52.878;6.168;2023-05-02T00:09:30;10.60;99.90
59148;DHT22;44930;52.878;6.168;2023-05-02T00:11:56;10.70;99.90
59148;DHT22;44930;52.878;6.168;2023-05-02T00:14:21;10.60;99.90
59148;DHT22;44930;52.878;6.168;2023-05-02T00:16:47;10.40;99.90
59148;DHT22;44930;52.878;6.168;2023-05-02T00:19:12;10.50;99.90
59148;DHT22;44930;52.878;6.168;2023-05-02T00:21:38;10.40;99.90
59148;DHT22;44930;52.878;6.168;2023-05-02T00:24:03;10.80;99.90
59148;DHT22;44930;52.878;6.168;2023-05-02T00:26:29;10.40;99.90
59148;DHT22;44930;52.878;6.168;2023-05-02T00:28:55;10.40;99.90
59148;DHT22;44930;52.878;6.168;2023-05-02T00:31:22;10.20;99.90
59148;DHT22;44930;52.878;6.168;2023-05-02T00:33:48;10.30;99.90
59148;DHT22;44930;52.878;6.168;2023-05-02T00:36:18;10.00;99.90
59148;DHT22;44930;52.878;6.168;2023-05-02T00:38:44;10.30;99.90
59148;DHT22;44930;52.878;6.168;2023-05-02T00:41:10;10.20;99.90
59148;DHT22;44930;52.878;6.168;2023-05-02T00:43:36;10.20;99.90
59148;DHT22;44930;52.878;6.168;2023-05-02T00:46:04;10.30;99.90
59148;DHT22;44930;52.878;6.168;2023-05-02T00:48:30;10.20;99.90
59148;DHT22;44930;52.878;6.168;2023-05-02T00:50:56;9.90;99.90
59148;DHT22;44930;52.878;6.168;2023-05-02T00:53:22;10.10;99.90
59148;DHT22;44930;52.878;6.168;2023-05-02T00:55:47;10.20;99.90
59148;DHT22;44930;52.878;6.168;2023-05-02T00:58:15;10.10;99.90
59148;DHT22;44930;52.878;6.168;2023-05-02T01:03:41;10.20;99.90
59148;DHT22;44930;52.878;6.168;2023-05-02T01:06:18;10.20;99.90
59148;DHT22;44930;52.878;6.168;2023-05-02T01:14:16;10.00;99.90
59148;DHT22;44930;52.878;6.168;2023-05-02T01:16:44;10.00;99.90
59148;DHT22;44930;52.878;6.168;2023-05-02T01:19:25;9.90;99.90
59148;DHT22;44930;52.878;6.168;2023-05-02T01:21:55;10.10;99.90
59148;DHT22;44930;52.878;6.168;2023-05-02T01:27:40;9.90;99.90
59148;DHT22;44930;52.878;6.168;2023-05-02T01:30:07;9.80;99.90
59148;DHT22;44930;52.878;6.168;2023-05-02T01:32:36;9.70;99.90
59148;DHT22;44930;52.878;6.168;2023-05-02T01:35:05;9.80;99.90
59148;DHT22;44930;52.878;6.168;2023-05-02T01:37:31;9.80;99.90
59148;DHT22;44930;52.878;6.168;2023-05-02T01:39:59;9.80;99.90
59148;DHT22;44930;52.878;6.168;2023-05-02T01:42:28;9.80;99.90
59148;DHT22;44930;52.878;6.168;2023-05-02T01:44:55;9.80;99.90
59148;DHT22;44930;52.878;6.168;2023-05-02T01:47:23;9.90;99.90
59148;DHT22;44930;52.878;6.168;2023-05-02T01:49:49;9.80;99.90
59148;DHT22;44930;52.878;6.168;2023-05-02T01:57:10;9.90;99.90
59148;DHT22;44930;52.878;6.168;2023-05-02T01:59:39;9.80;99.90
59148;DHT22;44930;52.878;6.168;2023-05-02T02:02:05;9.80;99.90
59148;DHT22;44930;52.878;6.168;2023-05-02T02:04:34;9.80;99.90
59148;DHT22;44930;52.878;6.168;2023-05-02T02:07:05;9.90;99.90
59148;DHT22;44930;52.878;6.168;2023-05-02T02:09:31;9.70;99.90
59148;DHT22;44930;52.878;6.168;2023-05-02T02:14:47;9.60;99.90
59148;DHT22;44930;52.878;6.168;2023-05-02T02:17:23;9.60;99.90
59148;DHT22;44930;52.878;6.168;2023-05-02T02:19:52;9.40;99.90
59148;DHT22;44930;52.878;6.168;2023-05-02T02:22:19;9.40;99.90
59148;DHT22;44930;52.878;6.168;2023-05-02T02:24:46;9.40;99.90
59148;DHT22;44930;52.878;6.168;2023-05-02T02:27:13;9.30;99.90
59148;DHT22;44930;52.878;6.168;2023-05-02T02:29:39;9.30;99.90
59148;DHT22;44930;52.878;6.168;2023-05-02T02:32:04;9.20;99.90
59148;DHT22;44930;52.878;6.168;2023-05-02T02:34:30;9.20;99.90
59148;DHT22;44930;52.878;6.168;2023-05-02T02:37:13;9.10;99.90
59148;DHT22;44930;52.878;6.168;2023-05-02T02:40:08;9.00;99.90
59148;DHT22;44930;52.878;6.168;2023-05-02T02:42:43;9.20;99.90
59148;DHT22;44930;52.878;6.168;2023-05-02T02:48:24;9.00;99.90
59148;DHT22;44930;52.878;6.168;2023-05-02T02:51:10;8.80;99.90
59148;DHT22;44930;52.878;6.168;2023-05-02T02:56:15;8.90;99.90
59148;DHT22;44930;52.878;6.168;2023-05-02T02:58:43;9.00;99.90
59148;DHT22;44930;52.878;6.168;2023-05-02T03:01:14;8.80;99.90
59148;DHT22;44930;52.878;6.168;2023-05-02T03:03:42;8.70;99.90
59148;DHT22;44930;52.878;6.168;2023-05-02T03:06:08;8.70;99.90
59148;DHT22;44930;52.878;6.168;2023-05-02T03:08:41;8.80;99.90
59148;DHT22;44930;52.878;6.168;2023-05-02T03:11:07;8.50;99.90
59148;DHT22;44930;52.878;6.168;2023-05-02T03:18:44;8.50;99.90
59148;DHT22;44930;52.878;6.168;2023-05-02T03:21:09;8.20;99.90
59148;DHT22;44930;52.878;6.168;2023-05-02T03:23:35;8.30;99.90
59148;DHT22;44930;52.878;6.168;2023-05-02T03:26:01;8.30;99.90
59148;DHT22;44930;52.878;6.168;2023-05-02T03:28:27;8.50;99.90
59148;DHT22;44930;52.878;6.168;2023-05-02T03:30:52;8.20;99.90
59148;DHT22;44930;52.878;6.168;2023-05-02T03:33:18;8.30;99.90
59148;DHT22;44930;52.878;6.168;2023-05-02T03:35:44;8.20;99.90
59148;DHT22;44930;52.878;6.168;2023-05-02T03:38:10;8.20;99.90
59148;DHT22;44930;52.878;6.168;2023-05-02T03:40:35;8.20;99.90
59148;DHT22;44930;52.878;6.168;2023-05-02T03:43:01;8.30;99.90
59148;DHT22;44930;52.878;6.168;2023-05-02T03:45:27;8.20;99.90
59148;DHT22;44930;52.878;6.168;2023-05-02T03:47:52;8.20;99.90
59148;DHT22;44930;52.878;6.168;2023-05-02T03:50:18;8.10;99.90
59148;DHT22;44930;52.878;6.168;2023-05-02T03:55:09;8.20;99.90
59148;DHT22;44930;52.878;6.168;2023-05-02T03:57:35;8.10;99.90
59148;DHT22;44930;52.878;6.168;2023-05-02T04:00:01;8.10;99.90
59148;DHT22;44930;52.878;6.168;2023-05-02T04:02:27;8.00;99.90
59148;DHT22;44930;52.878;6.168;2023-05-02T04:04:53;7.90;99.90
59148;DHT22;44930;52.878;6.168;2023-05-02T04:07:19;8.00;99.90
59148;DHT22;44930;52.878;6.168;2023-05-02T04:09:45;8.00;99.90
59148;DHT22;44930;52.878;6.168;2023-05-02T04:12:11;8.00;99.90
59148;DHT22;44930;52.878;6.168;2023-05-02T04:14:37;7.90;99.90
59148;DHT22;44930;52.878;6.168;2023-05-02T04:17:02;8.00;99.90
59148;DHT22;44930;52.878;6.168;2023-05-02T04:19:28;7.90;99.90
59148;DHT22;44930;52.878;6.168;2023-05-02T04:21:54;7.90;99.90
59148;DHT22;44930;52.878;6.168;2023-05-02T04:24:19;7.90;99.90
59148;DHT22;44930;52.878;6.168;2023-05-02T04:26:45;7.80;99.90
59148;DHT22;44930;52.878;6.168;2023-05-02T04:29:13;7.80;99.90
59148;DHT22;44930;52.878;6.168;2023-05-02T04:31:38;7.80;99.90
59148;DHT22;44930;52.878;6.168;2023-05-02T04:34:05;7.90;99.90
59148;DHT22;44930;52.878;6.168;2023-05-02T04:36:31;7.80;99.90
59148;DHT22;44930;52.878;6.168;2023-05-02T04:38:57;7.60;99.90
59148;DHT22;44930;52.878;6.168;2023-05-02T04:41:22;7.70;99.90
59148;DHT22;44930;52.878;6.168;2023-05-02T04:43:48;7.80;99.90
59148;DHT22;44930;52.878;6.168;2023-05-02T04:46:14;7.90;99.90
59148;DHT22;44930;52.878;6.168;2023-05-02T04:48:40;7.80;99.90
59148;DHT22;44930;52.878;6.168;2023-05-02T04:51:10;7.80;99.90
59148;DHT22;44930;52.878;6.168;2023-05-02T04:53:36;7.80;99.90
59148;DHT22;44930;52.878;6.168;2023-05-02T04:56:02;7.80;99.90
59148;DHT22;44930;52.878;6.168;2023-05-02T04:58:28;7.90;99.90
59148;DHT22;44930;52.878;6.168;2023-05-02T05:00:53;8.00;99.90
59148;DHT22;44930;52.878;6.168;2023-05-02T05:03:19;7.90;99.90
59148;DHT22;44930;52.878;6.168;2023-05-02T05:05:45;7.90;99.90
59148;DHT22;44930;52.878;6.168;2023-05-02T05:08:10;7.80;99.90
59148;DHT22;44930;52.878;6.168;2023-05-02T05:10:36;7.80;99.90
59148;DHT22;44930;52.878;6.168;2023-05-02T05:13:02;7.70;99.90
59148;DHT22;44930;52.878;6.168;2023-05-02T05:15:28;7.60;99.90
59148;DHT22;44930;52.878;6.168;2023-05-02T05:17:54;7.70;99.90
59148;DHT22;44930;52.878;6.168;2023-05-02T05:20:19;7.70;99.90
59148;DHT22;44930;52.878;6.168;2023-05-02T05:22:45;7.60;99.90
59148;DHT22;44930;52.878;6.168;2023-05-02T05:25:11;7.70;99.90
59148;DHT22;44930;52.878;6.168;2023-05-02T05:27:37;7.80;99.90
59148;DHT22;44930;52.878;6.168;2023-05-02T05:30:05;7.70;99.90
59148;DHT22;44930;52.878;6.168;2023-05-02T05:35:00;7.80;99.90
59148;DHT22;44930;52.878;6.168;2023-05-02T05:37:25;8.00;99.90
59148;DHT22;44930;52.878;6.168;2023-05-02T05:39:51;8.00;99.90
59148;DHT22;44930;52.878;6.168;2023-05-02T05:42:16;7.90;99.90
59148;DHT22;44930;52.878;6.168;2023-05-02T05:44:42;8.00;99.90
59148;DHT22;44930;52.878;6.168;2023-05-02T05:47:07;8.00;99.90
59148;DHT22;44930;52.878;6.168;2023-05-02T05:49:33;8.10;99.90
59148;DHT22;44930;52.878;6.168;2023-05-02T05:52:00;8.00;99.90
59148;DHT22;44930;52.878;6.168;2023-05-02T05:54:26;7.90;99.90
59148;DHT22;44930;52.878;6.168;2023-05-02T05:56:52;8.10;99.90
59148;DHT22;44930;52.878;6.168;2023-05-02T05:59:17;7.90;99.90
59148;DHT22;44930;52.878;6.168;2023-05-02T06:01:43;7.90;99.90
59148;DHT22;44930;52.878;6.168;2023-05-02T06:04:08;8.00;99.90
59148;DHT22;44930;52.878;6.168;2023-05-02T06:06:34;7.90;99.90
59148;DHT22;44930;52.878;6.168;2023-05-02T06:08:59;7.70;99.90
59148;DHT22;44930;52.878;6.168;2023-05-02T06:11:25;7.90;99.90
59148;DHT22;44930;52.878;6.168;2023-05-02T06:13:51;8.00;99.90
59148;DHT22;44930;52.878;6.168;2023-05-02T06:16:17;7.90;99.90
59148;DHT22;44930;52.878;6.168;2023-05-02T06:18:43;7.90;99.90
59148;DHT22;44930;52.878;6.168;2023-05-02T06:21:09;7.90;99.90
59148;DHT22;44930;52.878;6.168;2023-05-02T06:23:35;7.90;99.90
59148;DHT22;44930;52.878;6.168;2023-05-02T06:26:01;7.80;99.90
59148;DHT22;44930;52.878;6.168;2023-05-02T06:28:28;8.00;99.90
59148;DHT22;44930;52.878;6.168;2023-05-02T06:31:04;7.80;99.90
59148;DHT22;44930;52.878;6.168;2023-05-02T06:33:31;8.10;99.90
59148;DHT22;44930;52.878;6.168;2023-05-02T06:35:57;8.10;99.90
59148;DHT22;44930;52.878;6.168;2023-05-02T06:38:23;8.10;99.90
59148;DHT22;44930;52.878;6.168;2023-05-02T06:40:49;8.20;99.90
59148;DHT22;44930;52.878;6.168;2023-05-02T06:43:15;8.20;99.90
59148;DHT22;44930;52.878;6.168;2023-05-02T06:45:40;8.20;99.90
59148;DHT22;44930;52.878;6.168;2023-05-02T06:48:07;8.40;99.90
59148;DHT22;44930;52.878;6.168;2023-05-02T06:50:33;8.30;99.90
59148;DHT22;44930;52.878;6.168;2023-05-02T06:52:59;8.40;99.90
59148;DHT22;44930;52.878;6.168;2023-05-02T06:55:25;8.50;99.90
59148;DHT22;44930;52.878;6.168;2023-05-02T06:57:51;8.50;99.90
59148;DHT22;44930;52.878;6.168;2023-05-02T07:00:17;8.40;99.90
59148;DHT22;44930;52.878;6.168;2023-05-02T07:02:47;8.60;99.90
59148;DHT22;44930;52.878;6.168;2023-05-02T07:05:12;8.60;99.90
59148;DHT22;44930;52.878;6.168;2023-05-02T07:07:40;8.60;99.90
59148;DHT22;44930;52.878;6.168;2023-05-02T07:10:07;8.50;99.90
59148;DHT22;44930;52.878;6.168;2023-05-02T07:12:32;8.60;99.90
59148;DHT22;44930;52.878;6.168;2023-05-02T07:14:58;8.60;99.90
59148;DHT22;44930;52.878;6.168;2023-05-02T07:17:23;8.80;99.90
59148;DHT22;44930;52.878;6.168;2023-05-02T07:19:50;8.90;99.90
59148;DHT22;44930;52.878;6.168;2023-05-02T07:22:15;8.90;99.90
59148;DHT22;44930;52.878;6.168;2023-05-02T07:24:41;9.10;99.90
59148;DHT22;44930;52.878;6.168;2023-05-02T07:27:10;9.10;99.90
59148;DHT22;44930;52.878;6.168;2023-05-02T07:29:37;9.10;99.90
59148;DHT22;44930;52.878;6.168;2023-05-02T07:32:03;9.20;99.90
59148;DHT22;44930;52.878;6.168;2023-05-02T07:34:28;9.30;99.90
59148;DHT22;44930;52.878;6.168;2023-05-02T07:36:54;9.30;99.90
59148;DHT22;44930;52.878;6.168;2023-05-02T07:39:20;9.20;99.90
59148;DHT22;44930;52.878;6.168;2023-05-02T07:41:46;9.20;99.90
59148;DHT22;44930;52.878;6.168;2023-05-02T07:44:11;9.10;99.90
59148;DHT22;44930;52.878;6.168;2023-05-02T07:46:37;9.10;99.90
59148;DHT22;44930;52.878;6.168;2023-05-02T07:49:03;9.10;99.90
59148;DHT22;44930;52.878;6.168;2023-05-02T07:51:28;9.10;99.90
59148;DHT22;44930;52.878;6.168;2023-05-02T07:53:54;9.10;99.90
59148;DHT22;44930;52.878;6.168;2023-05-02T07:56:23;9.10;99.90
59148;DHT22;44930;52.878;6.168;2023-05-02T07:58:49;9.00;99.90
59148;DHT22;44930;52.878;6.168;2023-05-02T08:01:16;8.70;99.90
59148;DHT22;44930;52.878;6.168;2023-05-02T08:03:42;9.10;99.90
59148;DHT22;44930;52.878;6.168;2023-05-02T08:06:08;9.00;99.90
59148;DHT22;44930;52.878;6.168;2023-05-02T08:08:34;8.80;99.90
59148;DHT22;44930;52.878;6.168;2023-05-02T08:11:00;8.70;99.90
59148;DHT22;44930;52.878;6.168;2023-05-02T08:13:26;8.80;99.90
59148;DHT22;44930;52.878;6.168;2023-05-02T08:15:51;8.70;99.90
59148;DHT22;44930;52.878;6.168;2023-05-02T08:18:23;8.80;99.90
59148;DHT22;44930;52.878;6.168;2023-05-02T08:20:48;8.80;99.90
59148;DHT22;44930;52.878;6.168;2023-05-02T08:23:15;8.80;99.90
59148;DHT22;44930;52.878;6.168;2023-05-02T08:25:40;9.10;99.90
59148;DHT22;44930;52.878;6.168;2023-05-02T08:28:06;8.80;99.90
59148;DHT22;44930;52.878;6.168;2023-05-02T08:30:32;9.00;99.90
59148;DHT22;44930;52.878;6.168;2023-05-02T08:32:57;9.10;99.90
59148;DHT22;44930;52.878;6.168;2023-05-02T08:35:23;9.40;99.90
59148;DHT22;44930;52.878;6.168;2023-05-02T08:37:48;9.20;99.90
59148;DHT22;44930;52.878;6.168;2023-05-02T08:40:16;9.40;99.90
59148;DHT22;44930;52.878;6.168;2023-05-02T08:42:42;8.90;99.90
59148;DHT22;44930;52.878;6.168;2023-05-02T08:45:10;9.30;99.90
59148;DHT22;44930;52.878;6.168;2023-05-02T08:47:38;9.60;99.90
59148;DHT22;44930;52.878;6.168;2023-05-02T08:50:05;9.30;99.90
59148;DHT22;44930;52.878;6.168;2023-05-02T08:52:32;9.10;99.90
59148;DHT22;44930;52.878;6.168;2023-05-02T08:55:00;9.20;99.90
59148;DHT22;44930;52.878;6.168;2023-05-02T08:57:28;9.50;99.90
59148;DHT22;44930;52.878;6.168;2023-05-02T08:59:55;9.40;99.90
59148;DHT22;44930;52.878;6.168;2023-05-02T09:02:33;9.40;99.90
59148;DHT22;44930;52.878;6.168;2023-05-02T09:05:05;9.80;99.90
59148;DHT22;44930;52.878;6.168;2023-05-02T09:07:44;10.20;99.90
59148;DHT22;44930;52.878;6.168;2023-05-02T09:10:10;9.90;99.90
59148;DHT22;44930;52.878;6.168;2023-05-02T09:12:36;9.70;99.90
59148;DHT22;44930;52.878;6.168;2023-05-02T09:15:12;9.80;99.90
59148;DHT22;44930;52.878;6.168;2023-05-02T09:17:43;9.90;99.90
59148;DHT22;44930;52.878;6.168;2023-05-02T09:20:11;9.80;99.90
59148;DHT22;44930;52.878;6.168;2023-05-02T09:22:37;9.80;99.90
59148;DHT22;44930;52.878;6.168;2023-05-02T09:25:05;9.70;99.90
59148;DHT22;44930;52.878;6.168;2023-05-02T09:27:48;9.80;99.90
59148;DHT22;44930;52.878;6.168;2023-05-02T09:30:20;10.00;99.90
59148;DHT22;44930;52.878;6.168;2023-05-02T09:32:47;9.80;99.90
59148;DHT22;44930;52.878;6.168;2023-05-02T09:35:15;9.80;99.90
59148;DHT22;44930;52.878;6.168;2023-05-02T09:37:49;9.80;99.90
59148;DHT22;44930;52.878;6.168;2023-05-02T09:40:15;9.90;99.90
59148;DHT22;44930;52.878;6.168;2023-05-02T09:42:41;10.10;99.90
59148;DHT22;44930;52.878;6.168;2023-05-02T09:45:07;10.20;99.90
59148;DHT22;44930;52.878;6.168;2023-05-02T09:47:32;10.40;99.90
59148;DHT22;44930;52.878;6.168;2023-05-02T09:49:58;10.30;99.90
59148;DHT22;44930;52.878;6.168;2023-05-02T09:52:24;10.20;99.90
59148;DHT22;44930;52.878;6.168;2023-05-02T09:54:49;10.30;99.90
59148;DHT22;44930;52.878;6.168;2023-05-02T09:57:16;10.40;99.90
59148;DHT22;44930;52.878;6.168;2023-05-02T09:59:53;10.50;99.90
59148;DHT22;44930;52.878;6.168;2023-05-02T10:02:19;10.30;99.90
59148;DHT22;44930;52.878;6.168;2023-05-02T10:04:46;10.50;99.90
59148;DHT22;44930;52.878;6.168;2023-05-02T10:07:13;10.30;99.90
59148;DHT22;44930;52.878;6.168;2023-05-02T10:09:42;10.20;99.90
59148;DHT22;44930;52.878;6.168;2023-05-02T10:12:08;10.10;99.90
59148;DHT22;44930;52.878;6.168;2023-05-02T10:14:46;10.20;99.90
59148;DHT22;44930;52.878;6.168;2023-05-02T10:17:27;10.10;99.90
59148;DHT22;44930;52.878;6.168;2023-05-02T10:20:03;10.30;99.90
59148;DHT22;44930;52.878;6.168;2023-05-02T10:22:30;10.70;99.90
59148;DHT22;44930;52.878;6.168;2023-05-02T10:24:57;10.70;99.90
59148;DHT22;44930;52.878;6.168;2023-05-02T10:27:24;10.80;99.90
59148;DHT22;44930;52.878;6.168;2023-05-02T10:29:50;10.90;99.90
59148;DHT22;44930;52.878;6.168;2023-05-02T10:32:17;11.00;99.90
59148;DHT22;44930;52.878;6.168;2023-05-02T10:34:43;10.90;99.90
59148;DHT22;44930;52.878;6.168;2023-05-02T10:37:08;10.80;99.90
59148;DHT22;44930;52.878;6.168;2023-05-02T10:39:35;10.70;99.90
59148;DHT22;44930;52.878;6.168;2023-05-02T10:42:02;10.60;99.90
59148;DHT22;44930;52.878;6.168;2023-05-02T10:44:35;10.80;99.90
59148;DHT22;44930;52.878;6.168;2023-05-02T10:47:22;11.20;99.90
59148;DHT22;44930;52.878;6.168;2023-05-02T10:49:52;11.00;99.90
59148;DHT22;44930;52.878;6.168;2023-05-02T10:55:13;10.90;99.90
59148;DHT22;44930;52.878;6.168;2023-05-02T11:00:27;11.30;99.90
59148;DHT22;44930;52.878;6.168;2023-05-02T11:02:53;11.20;99.90
59148;DHT22;44930;52.878;6.168;2023-05-02T11:05:21;11.50;99.90
59148;DHT22;44930;52.878;6.168;2023-05-02T11:07:46;11.50;99.90
59148;DHT22;44930;52.878;6.168;2023-05-02T11:12:48;10.90;99.90
59148;DHT22;44930;52.878;6.168;2023-05-02T11:17:58;10.90;99.90
59148;DHT22;44930;52.878;6.168;2023-05-02T11:20:25;11.10;99.90
59148;DHT22;44930;52.878;6.168;2023-05-02T11:22:50;11.10;99.90
59148;DHT22;44930;52.878;6.168;2023-05-02T11:25:33;11.40;99.90
59148;DHT22;44930;52.878;6.168;2023-05-02T11:27:59;11.70;99.90
59148;DHT22;44930;52.878;6.168;2023-05-02T11:30:39;11.70;99.90
59148;DHT22;44930;52.878;6.168;2023-05-02T11:35:30;11.30;99.90
59148;DHT22;44930;52.878;6.168;2023-05-02T11:38:12;11.40;99.90
59148;DHT22;44930;52.878;6.168;2023-05-02T11:40:38;11.50;99.90
59148;DHT22;44930;52.878;6.168;2023-05-02T11:43:15;11.50;99.90
59148;DHT22;44930;52.878;6.168;2023-05-02T11:45:41;11.90;99.90
59148;DHT22;44930;52.878;6.168;2023-05-02T11:48:08;11.70;99.90
59148;DHT22;44930;52.878;6.168;2023-05-02T11:50:41;11.60;99.90
59148;DHT22;44930;52.878;6.168;2023-05-02T11:53:15;12.00;99.90
59148;DHT22;44930;52.878;6.168;2023-05-02T11:55:49;11.80;99.90
59148;DHT22;44930;52.878;6.168;2023-05-02T11:58:16;11.70;99.90
59148;DHT22;44930;52.878;6.168;2023-05-02T12:00:43;11.50;99.90
59148;DHT22;44930;52.878;6.168;2023-05-02T12:03:38;11.30;99.90
59148;DHT22;44930;52.878;6.168;2023-05-02T12:06:12;11.20;99.90
59148;DHT22;44930;52.878;6.168;2023-05-02T12:08:38;11.00;99.90
59148;DHT22;44930;52.878;6.168;2023-05-02T12:11:04;11.10;99.90
59148;DHT22;44930;52.878;6.168;2023-05-02T12:13:31;11.00;99.90
59148;DHT22;44930;52.878;6.168;2023-05-02T12:15:57;11.00;99.90
59148;DHT22;44930;52.878;6.168;2023-05-02T12:18:24;11.00;99.90
59148;DHT22;44930;52.878;6.168;2023-05-02T12:20:54;10.90;99.90
59148;DHT22;44930;52.878;6.168;2023-05-02T12:23:22;11.00;99.90
59148;DHT22;44930;52.878;6.168;2023-05-02T12:25:48;11.20;99.90
59148;DHT22;44930;52.878;6.168;2023-05-02T12:28:16;10.90;99.90
59148;DHT22;44930;52.878;6.168;2023-05-02T12:30:41;11.40;99.90
59148;DHT22;44930;52.878;6.168;2023-05-02T12:33:07;11.30;99.90
59148;DHT22;44930;52.878;6.168;2023-05-02T12:35:34;11.10;99.90
59148;DHT22;44930;52.878;6.168;2023-05-02T12:38:08;11.20;99.90
59148;DHT22;44930;52.878;6.168;2023-05-02T12:40:35;11.20;99.90
59148;DHT22;44930;52.878;6.168;2023-05-02T12:43:02;11.40;99.90
59148;DHT22;44930;52.878;6.168;2023-05-02T12:45:29;11.50;99.90
59148;DHT22;44930;52.878;6.168;2023-05-02T12:47:59;11.50;99.90
59148;DHT22;44930;52.878;6.168;2023-05-02T12:50:36;11.60;99.90
59148;DHT22;44930;52.878;6.168;2023-05-02T12:53:02;11.20;99.90
59148;DHT22;44930;52.878;6.168;2023-05-02T12:55:28;11.40;99.90
59148;DHT22;44930;52.878;6.168;2023-05-02T12:58:03;11.30;99.90
59148;DHT22;44930;52.878;6.168;2023-05-02T13:00:36;11.30;99.90
59148;DHT22;44930;52.878;6.168;2023-05-02T13:03:02;11.20;99.90
59148;DHT22;44930;52.878;6.168;2023-05-02T13:05:28;11.20;99.90
59148;DHT22;44930;52.878;6.168;2023-05-02T13:07:54;11.10;99.90
59148;DHT22;44930;52.878;6.168;2023-05-02T13:10:21;11.00;99.90
59148;DHT22;44930;52.878;6.168;2023-05-02T13:12:49;11.10;99.90
59148;DHT22;44930;52.878;6.168;2023-05-02T13:15:14;11.30;99.90
59148;DHT22;44930;52.878;6.168;2023-05-02T13:17:40;11.40;99.90
59148;DHT22;44930;52.878;6.168;2023-05-02T13:20:07;11.50;99.90
59148;DHT22;44930;52.878;6.168;2023-05-02T13:22:33;11.60;99.90
59148;DHT22;44930;52.878;6.168;2023-05-02T13:24:59;11.30;99.90
59148;DHT22;44930;52.878;6.168;2023-05-02T13:27:25;11.30;99.90
59148;DHT22;44930;52.878;6.168;2023-05-02T13:29:51;11.10;99.90
59148;DHT22;44930;52.878;6.168;2023-05-02T13:32:17;11.20;99.90
59148;DHT22;44930;52.878;6.168;2023-05-02T13:34:43;11.20;99.90
59148;DHT22;44930;52.878;6.168;2023-05-02T13:37:09;10.70;99.90
59148;DHT22;44930;52.878;6.168;2023-05-02T13:39:34;10.80;99.90
59148;DHT22;44930;52.878;6.168;2023-05-02T13:42:00;10.80;99.90
59148;DHT22;44930;52.878;6.168;2023-05-02T13:44:29;10.80;99.90
59148;DHT22;44930;52.878;6.168;2023-05-02T13:46:55;10.80;99.90
59148;DHT22;44930;52.878;6.168;2023-05-02T13:49:21;10.70;99.90
59148;DHT22;44930;52.878;6.168;2023-05-02T13:51:46;11.00;99.90
59148;DHT22;44930;52.878;6.168;2023-05-02T13:54:12;10.80;99.90
59148;DHT22;44930;52.878;6.168;2023-05-02T13:56:38;10.80;99.90
59148;DHT22;44930;52.878;6.168;2023-05-02T13:59:04;11.00;99.90
59148;DHT22;44930;52.878;6.168;2023-05-02T14:01:31;11.00;99.90
59148;DHT22;44930;52.878;6.168;2023-05-02T14:03:56;11.50;99.90
59148;DHT22;44930;52.878;6.168;2023-05-02T14:06:22;11.00;99.90
59148;DHT22;44930;52.878;6.168;2023-05-02T14:08:48;11.00;99.90
59148;DHT22;44930;52.878;6.168;2023-05-02T14:11:15;10.90;99.90
59148;DHT22;44930;52.878;6.168;2023-05-02T14:13:41;10.80;99.90
59148;DHT22;44930;52.878;6.168;2023-05-02T14:16:06;11.10;99.90
59148;DHT22;44930;52.878;6.168;2023-05-02T14:18:32;11.10;99.90
59148;DHT22;44930;52.878;6.168;2023-05-02T14:20:57;11.30;99.90
59148;DHT22;44930;52.878;6.168;2023-05-02T14:23:25;11.50;99.90
59148;DHT22;44930;52.878;6.168;2023-05-02T14:25:52;12.00;99.90
59148;DHT22;44930;52.878;6.168;2023-05-02T14:28:18;12.00;99.90
59148;DHT22;44930;52.878;6.168;2023-05-02T14:30:44;12.00;99.90
59148;DHT22;44930;52.878;6.168;2023-05-02T14:33:09;12.10;99.90
59148;DHT22;44930;52.878;6.168;2023-05-02T14:35:35;12.00;99.90
59148;DHT22;44930;52.878;6.168;2023-05-02T14:38:00;11.80;99.90
59148;DHT22;44930;52.878;6.168;2023-05-02T14:40:26;11.40;99.90
59148;DHT22;44930;52.878;6.168;2023-05-02T14:42:52;11.70;99.90
59148;DHT22;44930;52.878;6.168;2023-05-02T14:45:17;11.50;99.90
59148;DHT22;44930;52.878;6.168;2023-05-02T14:47:43;11.50;99.90
59148;DHT22;44930;52.878;6.168;2023-05-02T14:50:09;11.40;99.90
59148;DHT22;44930;52.878;6.168;2023-05-02T14:52:34;11.30;99.90
59148;DHT22;44930;52.878;6.168;2023-05-02T14:55:01;11.50;99.90
59148;DHT22;44930;52.878;6.168;2023-05-02T14:57:26;11.60;99.90
59148;DHT22;44930;52.878;6.168;2023-05-02T14:59:52;11.50;99.90
59148;DHT22;44930;52.878;6.168;2023-05-02T15:02:17;11.30;99.90
59148;DHT22;44930;52.878;6.168;2023-05-02T15:04:43;11.20;99.90
59148;DHT22;44930;52.878;6.168;2023-05-02T15:07:09;11.20;99.90
59148;DHT22;44930;52.878;6.168;2023-05-02T15:09:34;11.30;99.90
59148;DHT22;44930;52.878;6.168;2023-05-02T15:12:00;11.40;99.90
59148;DHT22;44930;52.878;6.168;2023-05-02T15:14:27;11.30;99.90
59148;DHT22;44930;52.878;6.168;2023-05-02T15:16:53;11.10;99.90
59148;DHT22;44930;52.878;6.168;2023-05-02T15:19:19;10.90;99.90
59148;DHT22;44930;52.878;6.168;2023-05-02T15:21:47;10.90;99.90
59148;DHT22;44930;52.878;6.168;2023-05-02T15:24:14;11.00;99.90
59148;DHT22;44930;52.878;6.168;2023-05-02T15:26:40;11.20;99.90
59148;DHT22;44930;52.878;6.168;2023-05-02T15:29:06;11.30;99.90
59148;DHT22;44930;52.878;6.168;2023-05-02T15:31:31;12.00;99.90
59148;DHT22;44930;52.878;6.168;2023-05-02T15:33:58;12.70;99.90
59148;DHT22;44930;52.878;6.168;2023-05-02T15:36:27;13.70;99.90
59148;DHT22;44930;52.878;6.168;2023-05-02T15:38:57;13.70;99.90
59148;DHT22;44930;52.878;6.168;2023-05-02T15:41:24;12.90;99.90
59148;DHT22;44930;52.878;6.168;2023-05-02T15:43:51;12.40;99.90
59148;DHT22;44930;52.878;6.168;2023-05-02T15:46:17;12.00;99.90
59148;DHT22;44930;52.878;6.168;2023-05-02T15:48:43;11.80;99.90
59148;DHT22;44930;52.878;6.168;2023-05-02T15:51:08;11.60;99.90
59148;DHT22;44930;52.878;6.168;2023-05-02T15:53:35;11.60;99.90
59148;DHT22;44930;52.878;6.168;2023-05-02T15:56:07;11.70;99.90
59148;DHT22;44930;52.878;6.168;2023-05-02T15:58:32;11.40;99.90
59148;DHT22;44930;52.878;6.168;2023-05-02T16:00:58;11.30;99.90
59148;DHT22;44930;52.878;6.168;2023-05-02T16:03:23;11.20;99.90
59148;DHT22;44930;52.878;6.168;2023-05-02T16:05:51;10.80;99.90
59148;DHT22;44930;52.878;6.168;2023-05-02T16:08:17;11.20;99.90
59148;DHT22;44930;52.878;6.168;2023-05-02T16:10:42;11.20;99.90
59148;DHT22;44930;52.878;6.168;2023-05-02T16:13:08;11.00;99.90
59148;DHT22;44930;52.878;6.168;2023-05-02T16:15:34;10.90;99.90
59148;DHT22;44930;52.878;6.168;2023-05-02T16:17:59;10.70;99.90
59148;DHT22;44930;52.878;6.168;2023-05-02T16:20:25;11.10;99.90
59148;DHT22;44930;52.878;6.168;2023-05-02T16:22:52;10.90;99.90
59148;DHT22;44930;52.878;6.168;2023-05-02T16:25:17;11.00;99.90
59148;DHT22;44930;52.878;6.168;2023-05-02T16:27:43;10.80;99.90